Time;durP1;ratioP1;P1;durP2;ratioP2;P2;SDS_P1;SDS_P2;PMS_P1;PMS_P2;Temp;Humidity;BMP_temperature;BMP_pressure;BME280_temperature;BME280_humidity;BME280_pressure;Samples;Min_cycle;Max_cycle;Signal;HPM_P1;HPM_P2
2023/06/03 06:02:07;;;;;;;7.13;2.92;;;32.00;34.80;;;;;;5581916;23;20232;-69
2023/06/03 06:04:33;;;;;;;5.43;2.55;;;32.00;35.70;;;;;;4916628;29;20209;-69
2023/06/03 06:07:00;;;;;;;2.53;2.33;;;32.70;34.40;;;;;;4916783;29;20543;-69
2023/06/03 06:09:27;;;;;;;2.38;2.22;;;32.80;36.00;;;;;;4917207;29;20205;-69
2023/06/03 06:11:54;;;;;;;3.55;2.47;;;32.90;36.20;;;;;;4917489;29;20232;-69
2023/06/03 06:14:21;;;;;;;2.58;2.35;;;33.50;29.80;;;;;;4917997;29;20233;-67
2023/06/03 06:16:48;;;;;;;2.53;2.33;;;33.60;31.80;;;;;;4916479;29;20295;-67
2023/06/03 06:19:16;;;;;;;3.65;2.83;;;33.80;31.50;;;;;;4916506;29;20209;-67
2023/06/03 06:21:42;;;;;;;2.92;2.67;;;33.90;32.60;;;;;;4916394;29;20228;-67
2023/06/03 06:24:09;;;;;;;3.22;2.70;;;33.80;36.30;;;;;;4916683;29;20208;-68
2023/06/03 06:26:36;;;;;;;5.95;2.70;;;33.80;32.70;;;;;;4916640;29;20205;-67
2023/06/03 06:29:03;;;;;;;3.08;2.60;;;33.50;32.60;;;;;;4919507;29;20274;-67
2023/06/03 06:31:29;;;;;;;3.72;2.58;;;33.10;34.00;;;;;;4919798;29;20228;-68
2023/06/03 06:33:56;;;;;;;2.50;2.30;;;33.50;34.40;;;;;;4919130;29;20208;-69
2023/06/03 06:36:29;;;;;;;2.58;2.38;;;33.20;32.20;;;;;;4919733;29;20205;-68
2023/06/03 06:38:57;;;;;;;4.03;2.35;;;33.30;27.90;;;;;;4919293;29;20185;-67
2023/06/03 06:41:26;;;;;;;4.45;2.83;;;33.40;27.30;;;;;;4918991;29;20728;-67
2023/06/03 06:43:54;;;;;;;3.30;2.67;;;32.80;29.40;;;;;;4918729;29;20568;-68
2023/06/03 06:46:20;;;;;;;5.05;2.45;;;33.10;28.50;;;;;;4919378;29;20307;-68
2023/06/03 06:48:47;;;;;;;4.20;2.70;;;33.10;27.90;;;;;;4918965;29;20693;-68
2023/06/03 06:51:14;;;;;;;4.85;2.78;;;33.40;28.90;;;;;;4919085;29;20229;-68
2023/06/03 06:53:47;;;;;;;4.82;2.47;;;33.70;29.20;;;;;;4918854;29;20260;-69
2023/06/03 06:56:15;;;;;;;3.10;2.80;;;34.00;27.60;;;;;;4918592;29;20563;-69
2023/06/03 06:58:41;;;;;;;2.88;2.67;;;33.30;28.00;;;;;;4918413;29;20260;-69
2023/06/03 07:01:08;;;;;;;3.15;2.78;;;33.10;29.20;;;;;;4918065;29;20691;-69
2023/06/03 07:03:36;;;;;;;4.75;2.53;;;;;;;;;;4918112;29;20209;-69
2023/06/03 07:06:03;;;;;;;6.57;3.88;;;;;;;;;;4917937;29;20656;-69
2023/06/03 07:08:30;;;;;;;3.30;2.53;;;;;;;;;;4918696;29;20773;-68
2023/06/03 07:10:59;;;;;;;2.97;2.60;;;;;;;;;;4919202;29;20209;-68
2023/06/03 07:13:26;;;;;;;4.18;2.75;;;;;;;;;;4919053;29;20680;-68
2023/06/03 07:15:55;;;;;;;3.53;2.80;;;;;;;;;;4919180;29;20201;-69
2023/06/03 07:18:22;;;;;;;11.27;3.28;;;;;;;;;;4919001;29;20268;-69
2023/06/03 07:20:50;;;;;;;3.05;2.53;;;;;;;;;;4918951;29;20200;-69
2023/06/03 07:23:20;;;;;;;3.08;2.50;;;;;;;;;;4919073;29;20209;-69
2023/06/03 07:25:48;;;;;;;2.70;2.58;;;;;;;;;;4919006;29;20193;-69
2023/06/03 07:28:18;;;;;;;2.95;2.70;;;34.90;32.40;;;;;;4918875;29;20224;-69
2023/06/03 07:30:49;;;;;;;2.80;2.60;;;35.10;30.50;;;;;;4918867;29;20205;-69
2023/06/03 07:33:25;;;;;;;2.67;2.47;;;35.10;30.90;;;;;;4918919;29;20193;-69
2023/06/03 07:35:53;;;;;;;4.00;2.47;;;35.40;30.70;;;;;;4918931;29;20212;-70
2023/06/03 07:38:43;;;;;;;2.90;2.55;;;35.60;32.30;;;;;;4918845;29;20201;-70
2023/06/03 07:41:10;;;;;;;4.55;2.72;;;35.60;32.20;;;;;;4918362;29;20569;-70
2023/06/03 07:43:39;;;;;;;2.58;2.38;;;36.10;31.80;;;;;;4918653;29;20212;-69
2023/06/03 07:46:06;;;;;;;2.58;2.38;;;35.80;29.70;;;;;;4918909;29;20262;-69
2023/06/03 07:48:34;;;;;;;2.42;2.22;;;35.50;30.90;;;;;;4918737;29;20228;-69
2023/06/03 07:51:01;;;;;;;4.70;2.95;;;35.70;30.30;;;;;;4918466;29;20224;-69
2023/06/03 07:53:30;;;;;;;4.05;2.58;;;35.70;31.80;;;;;;4918792;29;20220;-69
2023/06/03 07:55:58;;;;;;;4.10;2.70;;;35.80;31.70;;;;;;4918250;29;20668;-69
2023/06/03 07:58:26;;;;;;;3.72;2.65;;;35.90;29.60;;;;;;4918818;29;20205;-69
2023/06/03 08:00:54;;;;;;;2.20;2.08;;;35.20;29.80;;;;;;4918311;29;20200;-69
2023/06/03 08:03:23;;;;;;;3.65;2.45;;;34.90;30.80;;;;;;4917769;29;20570;-69
2023/06/03 08:05:51;;;;;;;3.13;2.53;;;34.10;30.00;;;;;;4918304;29;20208;-69
2023/06/03 08:08:19;;;;;;;3.00;2.33;;;32.90;31.50;;;;;;4918171;29;20221;-69
2023/06/03 08:10:46;;;;;;;2.78;2.58;;;31.60;34.00;;;;;;4918315;29;20208;-69
2023/06/03 08:13:15;;;;;;;4.13;2.85;;;30.10;33.60;;;;;;4918301;29;20228;-69
2023/06/03 08:15:41;;;;;;;3.50;2.88;;;28.60;35.10;;;;;;4918655;29;20291;-70
2023/06/03 08:18:10;;;;;;;5.00;3.17;;;27.50;36.30;;;;;;4918146;29;20210;-70
2023/06/03 08:20:38;;;;;;;3.75;3.13;;;26.40;38.60;;;;;;4918193;29;20205;-70
2023/06/03 08:23:05;;;;;;;4.15;3.38;;;25.60;40.10;;;;;;4918070;29;20598;-69
2023/06/03 08:25:32;;;;;;;3.30;2.97;;;25.00;42.00;;;;;;4918616;29;20211;-69
2023/06/03 08:27:59;;;;;;;8.50;3.88;;;24.50;42.60;;;;;;4918162;29;20232;-69
2023/06/03 08:30:25;;;;;;;3.78;3.50;;;23.80;45.30;;;;;;4918148;29;20205;-69
2023/06/03 08:32:52;;;;;;;5.40;3.78;;;;;;;;;;4917819;29;20680;-69
2023/06/03 08:35:22;;;;;;;4.03;3.63;;;;;;;;;;4918045;29;20269;-69
2023/06/03 08:37:49;;;;;;;9.00;4.25;;;;;;;;;;4917927;29;20205;-70
2023/06/03 08:40:17;;;;;;;4.20;3.83;;;;;;;;;;4918252;29;20215;-70
2023/06/03 08:42:45;;;;;;;5.13;3.70;;;;;;;;;;4917718;29;20261;-70
2023/06/03 08:45:13;;;;;;;6.30;3.70;;;;;;;;;;4917694;29;20205;-71
2023/06/03 08:47:46;;;;;;;4.05;3.70;;;;;;;;;;4917585;29;20209;-70
2023/06/03 08:50:16;;;;;;;9.25;3.50;;;;;;;;;;4917191;29;20261;-70
2023/06/03 08:52:46;;;;;;;3.65;3.35;;;;;;;;;;4917856;29;20335;-70
2023/06/03 08:55:14;;;;;;;4.63;3.83;;;;;;;;;;4917879;29;20688;-70
2023/06/03 08:57:44;;;;;;;4.25;3.60;;;;;;;;;;4917732;29;20276;-69
2023/06/03 09:00:13;;;;;;;4.82;3.42;;;;;;;;;;4917505;29;20199;-69
2023/06/03 09:02:40;;;;;;;5.40;4.65;;;;;;;;;;4917422;29;20221;-69
2023/06/03 09:05:08;;;;;;;5.45;4.10;;;;;;;;;;4917510;29;20260;-70
2023/06/03 09:07:36;;;;;;;4.30;3.53;;;;;;;;;;4917638;29;20200;-70
2023/06/03 09:10:05;;;;;;;4.05;3.67;;;;;;;;;;4917546;29;20228;-71
2023/06/03 09:12:33;;;;;;;4.22;3.63;;;;;;;;;;4918421;29;20240;-71
2023/06/03 09:15:01;;;;;;;3.72;3.42;;;;;;;;;;4917743;29;20212;-70
2023/06/03 09:17:28;;;;;;;4.00;3.70;;;;;;;;;;4916489;29;20824;-69
2023/06/03 09:19:57;;;;;;;4.55;4.15;;;;;;;;;;4917140;29;20201;-70
2023/06/03 09:22:25;;;;;;;7.10;4.60;;;;;;;;;;4917154;29;20224;-70
2023/06/03 09:24:52;;;;;;;4.75;3.90;;;;;;;;;;4924942;29;20232;-69
2023/06/03 09:27:21;;;;;;;5.97;4.20;;;;;;;;;;4923189;29;20208;-69
2023/06/03 09:29:48;;;;;;;4.57;4.22;;;;;;;;;;4920048;29;20261;-69
2023/06/03 09:32:15;;;;;;;4.53;3.85;;;;;;;;;;4920890;29;20240;-70
2023/06/03 09:34:43;;;;;;;4.82;4.30;;;;;;;;;;4935295;29;20229;-70
2023/06/03 09:37:10;;;;;;;5.28;4.10;;;;;;;;;;4935251;28;20207;-69
2023/06/03 09:39:38;;;;;;;4.97;4.05;;;;;;;;;;4918016;29;20669;-70
2023/06/03 09:42:05;;;;;;;6.05;3.80;;;;;;;;;;4917358;29;20228;-69
2023/06/03 09:44:41;;;;;;;4.10;3.80;;;;;;;;;;4916868;29;20665;-69
2023/06/03 09:47:08;;;;;;;5.25;4.35;;;;;;;;;;4917367;29;20204;-69
2023/06/03 09:49:36;;;;;;;5.45;4.45;;;;;;;;;;4919038;29;20267;-69
2023/06/03 09:52:07;;;;;;;4.65;3.75;;;;;;;;;;4928079;29;20632;-70
2023/06/03 09:54:34;;;;;;;4.22;3.92;;;;;;;;;;4930343;29;20190;-69
2023/06/03 09:57:10;;;;;;;5.78;3.95;;;;;;;;;;4939140;28;20205;-69
2023/06/03 09:59:37;;;;;;;4.68;3.83;;;;;;;;;;4941076;28;20168;-70
2023/06/03 10:02:11;;;;;;;4.45;4.05;;;;;;;;;;4940731;28;20221;-70
2023/06/03 10:04:41;;;;;;;6.70;4.70;;;;;;;;;;4944110;28;20268;-70
2023/06/03 10:07:09;;;;;;;4.50;4.10;;;;;;;;;;4927646;29;20189;-69
2023/06/03 10:09:36;;;;;;;5.47;4.45;;;;;;;;;;4921808;29;20225;-69
2023/06/03 10:12:06;;;;;;;4.55;4.03;;;;;;;;;;4921133;29;20227;-69
2023/06/03 10:14:33;;;;;;;8.23;4.80;;;;;;;;;;4921871;29;20193;-70
2023/06/03 10:17:05;;;;;;;6.05;3.90;;;;;;;;;;4924129;29;20564;-70
2023/06/03 10:19:34;;;;;;;4.30;3.90;;;;;;;;;;4922615;29;20736;-70
2023/06/03 10:22:02;;;;;;;4.63;3.55;;;;;;;;;;4923250;29;20239;-70
2023/06/03 10:24:31;;;;;;;3.88;3.45;;;;;;;;;;4924005;29;20288;-69
2023/06/03 10:26:59;;;;;;;4.85;4.40;;;;;;;;;;4924589;29;20235;-69
2023/06/03 10:29:26;;;;;;;5.93;4.20;;;;;;;;;;4924068;29;20244;-68
2023/06/03 10:31:55;;;;;;;4.07;3.45;;;;;;;;;;4925084;29;20523;-69
2023/06/03 10:34:22;;;;;;;5.03;4.10;;;;;;;;;;4923756;29;20204;-68
2023/06/03 10:36:57;;;;;;;5.72;4.30;;;;;;;;;;4924543;29;20653;-69
2023/06/03 10:39:25;;;;;;;4.30;3.83;;;;;;;;;;4924567;29;20275;-68
2023/06/03 10:41:54;;;;;;;4.68;3.80;;;;;;;;;;4923039;29;20585;-68
2023/06/03 10:44:22;;;;;;;4.70;3.83;;;;;;;;;;4924992;29;20240;-68
2023/06/03 10:46:56;;;;;;;5.97;3.88;;;;;;;;;;4923548;29;20200;-69
2023/06/03 10:49:25;;;;;;;4.85;4.07;;;;;;;;;;4924019;29;20220;-69
2023/06/03 10:52:01;;;;;;;4.65;3.80;;;;;;;;;;4924507;29;20225;-69
2023/06/03 10:54:33;;;;;;;4.00;3.58;;;;;;;;;;4923703;29;20238;-69
2023/06/03 10:57:06;;;;;;;4.80;4.30;;;;;;;;;;4924219;29;20556;-69
2023/06/03 10:59:40;;;;;;;5.95;4.15;;;;;;;;;;4921856;29;20185;-69
2023/06/03 11:02:07;;;;;;;6.20;4.70;;;;;;;;;;4919262;29;20251;-69
2023/06/03 11:04:36;;;;;;;4.97;4.03;;;;;;;;;;4919304;29;20219;-69
2023/06/03 11:07:04;;;;;;;4.00;3.70;;;;;;;;;;4919543;29;20210;-69
2023/06/03 11:09:32;;;;;;;4.53;4.18;;;;;;;;;;4919324;29;20231;-69
2023/06/03 11:12:04;;;;;;;3.92;3.60;;;;;;;;;;4919413;29;20225;-69
2023/06/03 11:14:51;;;;;;;4.13;3.72;;;;;;;;;;4919248;29;20283;-69
2023/06/03 11:17:19;;;;;;;3.50;3.30;;;;;;;;;;4919451;29;20586;-69
2023/06/03 11:19:49;;;;;;;4.22;3.67;;;;;;;;;;4919467;29;20630;-69
2023/06/03 11:22:38;;;;;;;3.80;3.50;;;;;;;;;;4918939;29;20784;-68
2023/06/03 11:25:06;;;;;;;4.03;3.72;;;;;;;;;;4919590;29;20200;-69
2023/06/03 11:27:33;;;;;;;3.63;3.33;;;;;;;;;;4919557;29;20213;-69
2023/06/03 11:30:01;;;;;;;4.10;3.70;;;;;;;;;;4919536;29;20232;-69
2023/06/03 11:32:29;;;;;;;4.70;3.67;;;;;;;;;;4919467;29;20221;-69
2023/06/03 11:35:11;;;;;;;3.55;3.25;;;;;;;;;;4919615;29;20201;-70
2023/06/03 11:37:54;;;;;;;4.10;3.05;;;;;;;;;;4918606;29;20208;-68
2023/06/03 11:40:22;;;;;;;4.15;3.85;;;;;;;;;;4918697;29;20243;-69
2023/06/03 11:43:04;;;;;;;3.50;3.30;;;;;;;;;;4918618;29;20224;-68
2023/06/03 11:45:32;;;;;;;7.68;3.90;;;;;;;;;;4916821;29;20680;-68
2023/06/03 11:48:02;;;;;;;4.10;3.80;;;;;;;;;;4918676;29;20209;-68
2023/06/03 11:50:30;;;;;;;3.35;3.15;;;;;;;;;;4918994;29;20280;-68
2023/06/03 11:52:58;;;;;;;3.55;3.35;;;;;;;;;;4918351;29;20712;-68
2023/06/03 11:55:26;;;;;;;4.65;3.85;;;;;;;;;;4918574;29;20205;-68
2023/06/03 11:57:54;;;;;;;4.95;3.90;;;;;;;;;;4918632;29;20212;-68
2023/06/03 12:00:22;;;;;;;4.90;3.80;;;;;;;;;;4918378;29;20280;-68
2023/06/03 12:02:49;;;;;;;3.75;3.45;;;;;;;;;;4918305;29;20228;-68
2023/06/03 12:05:17;;;;;;;3.78;3.47;;;;;;;;;;4918010;29;20591;-69
2023/06/03 12:07:53;;;;;;;3.58;3.25;;;;;;;;;;4918390;29;20221;-69
2023/06/03 12:10:22;;;;;;;3.80;3.60;;;;;;;;;;4918466;29;20264;-69
2023/06/03 12:12:53;;;;;;;3.95;3.65;;;;;;;;;;4917977;29;20232;-69
2023/06/03 12:15:20;;;;;;;3.72;3.42;;;;;;;;;;4931959;23;20232;-74
2023/06/03 12:17:47;;;;;;;4.43;4.00;;;;;;;;;;4918313;29;20244;-74
2023/06/03 12:20:24;;;;;;;4.03;3.72;;;;;;;;;;4917972;29;20201;-74
2023/06/03 12:22:51;;;;;;;4.70;3.83;;;;;;;;;;4918132;29;20216;-74
2023/06/03 12:25:23;;;;;;;4.75;4.05;;;;;;;;;;4917046;29;20247;-74
2023/06/03 12:27:50;;;;;;;3.83;3.58;;;;;;;;;;4917794;29;20224;-74
2023/06/03 12:30:29;;;;;;;3.65;3.45;;;;;;;;;;4917670;29;20239;-74
2023/06/03 12:32:57;;;;;;;6.85;6.15;;;;;;;;;;4917501;29;20601;-73
2023/06/03 12:35:25;;;;;;;5.05;4.43;;;;;;;;;;4917639;29;20225;-74
2023/06/03 12:38:03;;;;;;;4.85;4.20;;;;;;;;;;4917891;29;20232;-74
2023/06/03 12:40:32;;;;;;;5.63;4.18;;;;;;;;;;4917260;29;20607;-75
2023/06/03 12:43:00;;;;;;;5.57;5.07;;;;;;;;;;4917610;29;20205;-74
2023/06/03 12:45:27;;;;;;;5.07;4.68;;;;;;;;;;4917758;29;20283;-74
2023/06/03 12:47:55;;;;;;;4.65;4.25;;;;;;;;;;4917476;29;20205;-74
2023/06/03 12:50:23;;;;;;;4.13;3.80;;;;;;;;;;4917363;29;20216;-74
2023/06/03 12:52:51;;;;;;;4.60;3.90;;;;;;;;;;4919934;29;20229;-76
2023/06/03 12:55:20;;;;;;;5.38;4.38;;;;;;;;;;4921725;29;20224;-75
2023/06/03 12:57:49;;;;;;;3.58;3.30;;;;;;;;;;4921765;29;20765;-77
2023/06/03 13:00:19;;;;;;;4.45;4.05;;;;;;;;;;4921557;29;20201;-76
2023/06/03 13:02:47;;;;;;;4.78;4.13;;;;;;;;;;4922544;29;20252;-75
2023/06/03 13:05:15;;;;;;;4.13;3.75;;;;;;;;;;4922128;29;20723;-75
2023/06/03 13:07:44;;;;;;;4.68;3.80;;;;;;;;;;4922124;29;20236;-76
2023/06/03 13:10:13;;;;;;;3.88;3.45;;;;;;;;;;4921267;29;20244;-76
2023/06/03 13:12:41;;;;;;;4.65;3.88;;;;;;;;;;4921817;29;20732;-76
2023/06/03 13:15:10;;;;;;;4.38;3.97;;;;;;;;;;4921019;29;20260;-76
2023/06/03 13:17:38;;;;;;;9.38;4.38;;;;;;;;;;4922104;29;20205;-76
2023/06/03 13:20:06;;;;;;;4.05;3.72;;;;;;;;;;4922209;29;20221;-76
2023/06/03 13:22:34;;;;;;;3.90;3.60;;;;;;;;;;4922393;29;20224;-75
2023/06/03 13:25:01;;;;;;;4.60;3.80;;;;;;;;;;4922072;29;20228;-75
2023/06/03 13:27:29;;;;;;;3.88;3.58;;;;;;;;;;4921650;29;20211;-76
2023/06/03 13:29:56;;;;;;;4.35;4.00;;;;;;;;;;4920542;29;20227;-76
2023/06/03 13:32:25;;;;;;;3.92;3.63;;;;;;;;;;4919645;29;20211;-75
2023/06/03 13:34:55;;;;;;;7.60;3.97;;;;;;;;;;4921176;29;20217;-76
2023/06/03 13:37:22;;;;;;;3.83;3.33;;;;;;;;;;4924509;29;20224;-76
2023/06/03 13:39:50;;;;;;;4.28;3.85;;;;;;;;;;4925177;29;20221;-75
2023/06/03 13:42:19;;;;;;;4.03;3.65;;;;;;;;;;4925323;29;20217;-75
2023/06/03 13:44:46;;;;;;;4.57;4.20;;;;;;;;;;4924025;29;20263;-75
2023/06/03 13:47:13;;;;;;;3.90;3.60;;;;;;;;;;4924616;29;20216;-75
2023/06/03 13:49:42;;;;;;;4.05;3.35;;;;;;;;;;4923505;29;20276;-75
2023/06/03 13:52:09;;;;;;;6.03;4.10;;;;;;;;;;4922830;29;20204;-75
2023/06/03 13:54:37;;;;;;;4.03;3.70;;;;;;;;;;4924129;29;20225;-75
2023/06/03 13:57:04;;;;;;;4.63;4.07;;;;;;;;;;4924833;29;20237;-75
2023/06/03 13:59:32;;;;;;;4.97;4.00;;;;;;;;;;4925869;29;20237;-74
2023/06/03 14:01:59;;;;;;;4.22;3.90;;;;;;;;;;4924527;29;20869;-74
2023/06/03 14:04:26;;;;;;;4.18;3.78;;;;;;;;;;4924763;29;20233;-75
2023/06/03 14:06:55;;;;;;;4.55;4.18;;;;;;;;;;4924280;29;20684;-74
2023/06/03 14:09:23;;;;;;;4.10;3.80;;;;;;;;;;4922817;29;20233;-73
2023/06/03 14:11:51;;;;;;;5.00;4.15;;;;;;;;;;4924997;29;20213;-75
2023/06/03 14:14:19;;;;;;;5.22;4.68;;;;;;;;;;4924413;29;20209;-75
2023/06/03 14:16:47;;;;;;;3.67;3.38;;;;;;;;;;4925065;29;20216;-75
2023/06/03 14:19:14;;;;;;;4.85;4.40;;;;;;;;;;4923477;29;20264;-75
2023/06/03 14:21:42;;;;;;;5.05;4.15;;;;;;;;;;4922619;29;20227;-75
2023/06/03 14:24:10;;;;;;;6.13;4.30;;;;;;;;;;4922224;29;20665;-76
2023/06/03 14:26:38;;;;;;;6.45;4.07;;;;;;;;;;4919847;29;20239;-73
2023/06/03 14:29:06;;;;;;;4.90;4.05;;;;;;;;;;4919964;29;20205;-72
2023/06/03 14:31:33;;;;;;;6.03;3.97;;;;;;;;;;4919762;29;20225;-72
2023/06/03 14:34:00;;;;;;;3.85;3.55;;;;;;;;;;4919397;29;20543;-72
2023/06/03 14:36:27;;;;;;;3.95;3.55;;;;;;;;;;4919821;29;20677;-73
2023/06/03 14:38:55;;;;;;;3.97;3.65;;;;;;;;;;4920690;29;20185;-73
2023/06/03 14:41:23;;;;;;;5.05;4.25;;;;;;;;;;4923985;29;20189;-73
2023/06/03 14:43:50;;;;;;;5.20;4.15;;;;;;;;;;4926065;29;20208;-73
2023/06/03 14:46:17;;;;;;;4.97;4.03;;;;;;;;;;4924807;29;20232;-73
2023/06/03 14:48:44;;;;;;;5.35;4.20;;;;;;;;;;4924449;29;20201;-73
2023/06/03 14:51:11;;;;;;;4.38;3.85;;;;;;;;;;4921188;29;20205;-73
2023/06/03 14:53:38;;;;;;;4.80;4.25;;;;;;;;;;4919514;29;20565;-73
2023/06/03 14:56:06;;;;;;;4.00;3.40;;;;;;;;;;4919272;29;20252;-75
2023/06/03 14:58:34;;;;;;;6.07;4.70;;;;;;;;;;4919459;29;20212;-75
2023/06/03 15:01:03;;;;;;;5.55;4.25;;;;;;;;;;4919438;29;20227;-73
2023/06/03 15:03:30;;;;;;;4.15;3.85;;;;;;;;;;4919438;29;20209;-74
2023/06/03 15:05:57;;;;;;;6.75;4.38;;;;;;;;;;4919058;29;20224;-74
2023/06/03 15:08:24;;;;;;;5.80;4.05;;;;;;;;;;4919255;29;20205;-74
2023/06/03 15:10:52;;;;;;;4.43;3.80;;;;;;;;;;4918986;29;20808;-75
2023/06/03 15:13:20;;;;;;;4.15;3.85;;;;;;;;;;4919190;29;20209;-74
2023/06/03 15:15:49;;;;;;;5.65;3.97;;;;;;;;;;4918817;29;20233;-75
2023/06/03 15:18:16;;;;;;;8.13;4.22;;;;;;;;;;4919148;29;20231;-75
2023/06/03 15:20:43;;;;;;;4.18;3.65;;;;;;;;;;4919163;29;20205;-75
2023/06/03 15:23:10;;;;;;;4.78;3.70;;;;;;;;;;4919203;29;20209;-75
2023/06/03 15:25:38;;;;;;;4.28;3.97;;;;;;;;;;4919031;29;20580;-74
2023/06/03 15:28:05;;;;;;;5.05;3.97;;;;;;;;;;4919117;29;20216;-73
2023/06/03 15:30:32;;;;;;;5.15;4.10;;;;;;;;;;4918922;29;20224;-74
2023/06/03 15:33:00;;;;;;;4.93;4.20;;;;;;;;;;4918943;29;20216;-74
2023/06/03 15:35:27;;;;;;;5.45;4.07;;;;;;;;;;4918974;29;20221;-75
2023/06/03 15:37:54;;;;;;;5.78;4.20;;;;;;;;;;4918953;29;20236;-75
2023/06/03 15:40:21;;;;;;;4.55;4.10;;;;;;;;;;4918420;29;20577;-76
2023/06/03 15:42:48;;;;;;;4.38;3.40;;;;;;;;;;4918791;29;20212;-76
2023/06/03 15:45:15;;;;;;;4.10;3.72;;;;;;;;;;4918695;29;20224;-76
2023/06/03 15:47:42;;;;;;;4.32;4.03;;;;;;;;;;4918848;29;20197;-76
2023/06/03 15:50:11;;;;;;;4.63;4.03;;;;;;;;;;4918603;29;20232;-75
2023/06/03 15:52:38;;;;;;;4.55;4.15;;;;;;;;;;4918304;29;20207;-75
2023/06/03 15:55:05;;;;;;;6.30;4.47;;;;;;;;;;4918386;29;20224;-75
2023/06/03 15:57:32;;;;;;;6.85;5.20;;;;;;;;;;4918221;29;20204;-75
2023/06/03 16:00:00;;;;;;;5.82;4.45;;;;;;;;;;4918113;29;20236;-75
2023/06/03 16:02:27;;;;;;;4.28;3.40;;;;;;;;;;4918274;29;20208;-75
2023/06/03 16:04:54;;;;;;;4.07;3.78;;;;;;;;;;4918308;29;20243;-75
2023/06/03 16:07:22;;;;;;;4.28;3.88;;;;;;;;;;4918220;29;20209;-75
2023/06/03 16:09:50;;;;;;;4.25;3.92;;;;;;;;;;4918222;29;20219;-74
2023/06/03 16:12:17;;;;;;;4.75;4.35;;;;;;;;;;4918268;29;20229;-74
2023/06/03 16:14:44;;;;;;;4.88;4.35;;;;;;;;;;4917813;29;20236;-74
2023/06/03 16:17:11;;;;;;;4.05;3.67;;;;;;;;;;4917978;29;20211;-75
2023/06/03 16:19:41;;;;;;;4.20;3.83;;;;;;;;;;4917965;29;20269;-74
2023/06/03 16:22:10;;;;;;;4.32;3.92;;;;;;;;;;4916661;29;20207;-75
2023/06/03 16:24:39;;;;;;;5.32;4.00;;;;;;;;;;4917977;29;20229;-75
2023/06/03 16:27:08;;;;;;;3.95;3.65;;;;;;;;;;4918354;29;20216;-75
2023/06/03 16:29:35;;;;;;;3.75;3.53;;;;;;;;;;4918444;29;20204;-75
2023/06/03 16:32:02;;;;;;;3.92;3.60;;;;;;;;;;4918192;29;20209;-76
2023/06/03 16:34:29;;;;;;;4.03;3.63;;;;;;;;;;4917901;29;20247;-76
2023/06/03 16:36:56;;;;;;;3.78;3.55;;;;;;;;;;4917776;29;20668;-76
2023/06/03 16:39:23;;;;;;;4.57;4.22;;;;;;;;;;4917752;29;20291;-74
2023/06/03 16:41:52;;;;;;;3.95;3.63;;;;;;;;;;4917944;29;20209;-73
2023/06/03 16:44:19;;;;;;;4.18;3.88;;;;;;;;;;4917711;29;20204;-74
2023/06/03 16:46:48;;;;;;;5.13;4.22;;;;;;;;;;4917900;29;20209;-74
2023/06/03 16:49:15;;;;;;;6.70;4.07;;;;;;;;;;4917744;29;20205;-74
2023/06/03 16:51:42;;;;;;;5.80;5.05;;;;;;;;;;4917662;29;20256;-74
2023/06/03 16:54:09;;;;;;;7.95;4.63;;;;;;;;;;4917335;29;20680;-74
2023/06/03 16:56:36;;;;;;;4.70;4.38;;;;;;;;;;4918247;29;20201;-74
2023/06/03 16:59:06;;;;;;;5.03;4.60;;;;;;;;;;4917789;29;20209;-72
2023/06/03 17:01:33;;;;;;;5.80;4.72;;;;;;;;;;4917825;29;20211;-73
2023/06/03 17:04:02;;;;;;;5.80;4.60;;;;;;;;;;4917649;29;20208;-73
2023/06/03 17:06:29;;;;;;;5.15;4.65;;;;;;;;;;4917459;29;20260;-72
2023/06/03 17:08:56;;;;;;;6.15;4.97;;;;;;;;;;4917621;29;20211;-72
2023/06/03 17:11:23;;;;;;;3.80;3.60;;;;;;;;;;4916721;29;20220;-73
2023/06/03 17:13:50;;;;;;;4.20;3.90;;;;;;;;;;4917232;29;20205;-73
2023/06/03 17:16:19;;;;;;;3.88;3.67;;;;;;;;;;4916851;29;20232;-73
2023/06/03 17:18:46;;;;;;;4.15;3.85;;;;;;;;;;4916993;29;20233;-74
2023/06/03 17:21:13;;;;;;;4.13;3.83;;;;;;;;;;4917227;29;20205;-74
2023/06/03 17:23:40;;;;;;;4.18;3.78;;;;;;;;;;4917142;29;20205;-74
2023/06/03 17:26:07;;;;;;;4.47;4.07;;;;;;;;;;4917480;29;20224;-74
2023/06/03 17:28:34;;;;;;;4.18;3.78;;;;;;;;;;4917248;29;20204;-75
2023/06/03 17:31:01;;;;;;;3.55;3.35;;;;;;;;;;4917264;29;20263;-73
2023/06/03 17:33:29;;;;;;;3.53;3.33;;;;;;;;;;4917285;29;20209;-70
2023/06/03 17:35:57;;;;;;;4.15;3.50;;;;;;;;;;4916998;29;20233;-69
2023/06/03 17:38:24;;;;;;;3.78;3.50;;;;;;;;;;4916976;29;20196;-69
2023/06/03 17:40:51;;;;;;;3.95;3.65;;;;;;;;;;4916876;29;20201;-69
2023/06/03 17:43:18;;;;;;;4.28;3.97;;;;;;;;;;4917110;29;20205;-69
2023/06/03 17:45:45;;;;;;;5.18;4.72;;;;;;;;;;4917200;29;20236;-70
2023/06/03 17:48:12;;;;;;;4.70;4.40;;;;;;;;;;4916778;29;20594;-71
2023/06/03 17:50:40;;;;;;;4.82;4.43;;;;;;;;;;4917003;29;20213;-72
2023/06/03 17:53:07;;;;;;;5.55;4.32;;;;;;;;;;4917267;29;20204;-72
2023/06/03 17:55:34;;;;;;;5.07;4.57;;;;;;;;;;4917038;29;20224;-72
2023/06/03 17:58:01;;;;;;;4.82;4.03;;;;;;;;;;4916717;29;20208;-71
2023/06/03 18:00:28;;;;;;;4.72;4.18;;;;;;;;;;4917195;29;20208;-71
2023/06/03 18:02:55;;;;;;;4.55;4.25;;;;;;;;;;4917120;29;20212;-71
2023/06/03 18:05:22;;;;;;;4.68;4.22;;;;;;;;;;4917051;29;20235;-70
2023/06/03 18:07:51;;;;;;;4.57;4.18;;;;;;;;;;4917138;29;20216;-72
2023/06/03 18:10:21;;;;;;;4.40;4.07;;;;;;;;;;4917429;29;20205;-77
2023/06/03 18:12:48;;;;;;;3.80;3.50;;;;;;;;;;4916502;29;20700;-70
2023/06/03 18:15:15;;;;;;;4.03;3.65;;;;;;;;;;4938937;23;20229;-68
2023/06/03 18:17:42;;;;;;;4.15;3.85;;;;;;;;;;4917099;29;20224;-69
2023/06/03 18:20:10;;;;;;;5.10;4.68;;;;;;;;;;4917093;29;20212;-69
2023/06/03 18:22:37;;;;;;;4.43;4.03;;;;;;;;;;4916669;29;20205;-69
2023/06/03 18:25:06;;;;;;;4.60;4.20;;;;;;;;;;4920236;29;20568;-68
2023/06/03 18:27:33;;;;;;;4.53;4.22;;;;;;;;;;4901629;29;20213;-69
2023/06/03 18:30:00;;;;;;;4.53;4.22;;;;;;;;;;4900169;29;20456;-68
2023/06/03 18:32:27;;;;;;;4.72;4.32;;;;;;;;;;4901237;29;20221;-68
2023/06/03 18:34:56;;;;;;;4.90;4.25;;;;;;;;;;4901263;29;20216;-68
2023/06/03 18:37:24;;;;;;;4.32;4.03;;;;;;;;;;4901347;29;20359;-68
2023/06/03 18:39:51;;;;;;;4.70;4.30;;;;;;;;;;4901179;29;20212;-68
2023/06/03 18:42:19;;;;;;;4.43;4.03;;;;;;;;;;4901342;29;20202;-68
2023/06/03 18:44:46;;;;;;;4.10;3.80;;;;;;;;;;4900975;29;20217;-68
2023/06/03 18:47:13;;;;;;;;;;;;;;;;;;4901484;29;20248;-68
2023/06/03 18:49:40;;;;;;;;;;;;;;;;;;4901550;29;19923;-68
2023/06/03 18:52:07;;;;;;;;;;;;;;;;;;4901356;29;19923;-68
2023/06/03 18:54:34;;;;;;;;;;;;;;;;;;4901347;29;19987;-68
2023/06/03 18:57:01;;;;;;;;;;;;;;;;;;4901552;29;20328;-69
2023/06/03 18:59:28;;;;;;;;;;;;;;;;;;4900966;29;19961;-70
2023/06/03 19:01:55;;;;;;;;;;;;;;;;;;4900801;29;20383;-69
2023/06/03 19:04:22;;;;;;;;;;;;;;;;;;4900984;29;20340;-72
2023/06/03 19:06:49;;;;;;;;;;;;;;;;;;4900972;29;19930;-70
2023/06/03 19:09:17;;;;;;;;;;;;;;;;;;4900993;29;19950;-69
2023/06/03 19:11:44;;;;;;;;;;;;;;;;;;4900863;29;19997;-68
2023/06/03 19:14:10;;;;;;;;;;;;;;;;;;4900630;29;19924;-69
2023/06/03 19:16:37;;;;;;;;;;;;;;;;;;4900438;29;19930;-69
2023/06/03 19:19:04;;;;;;;;;;;;;;;;;;4900472;29;20380;-69
2023/06/03 19:21:31;;;;;;;;;;;;;;;;;;4900738;29;19924;-68
2023/06/03 19:23:58;;;;;;;;;;;;;;;;;;4900623;29;19924;-70
2023/06/03 19:26:25;;;;;;;;;;;;;;;;;;4900539;29;19979;-69
2023/06/03 19:28:52;;;;;;;;;;;;;;;;;;4900414;29;20400;-70
2023/06/03 19:31:19;;;;;;;;;;;;;;;;;;4900537;29;19979;-70
2023/06/03 19:33:47;;;;;;;;;;;;;;;;;;4900478;29;20324;-70
2023/06/03 19:36:14;;;;;;;;;;;;;;;;;;4900346;29;19929;-69
2023/06/03 19:38:41;;;;;;;;;;;;;;;;;;4900556;29;19985;-68
2023/06/03 19:41:08;;;;;;;;;;;;;;;;;;4902019;29;19928;-70
2023/06/03 19:43:35;;;;;;;;;;;;;;;;;;4901468;29;19923;-69
2023/06/03 19:46:02;;;;;;;;;;;;;;;;;;4900576;29;19927;-68
2023/06/03 19:48:30;;;;;;;4.60;4.30;;;;;;;;;;4898439;29;20913;-68
2023/06/03 19:50:57;;;;;;;4.30;3.92;;;;;;;;;;4900041;29;20202;-68
2023/06/03 19:53:24;;;;;;;3.88;3.58;;;;;;;;;;4900068;29;20225;-68
2023/06/03 19:55:51;;;;;;;3.83;3.55;;;;;;;;;;4900331;29;20229;-68
2023/06/03 19:58:18;;;;;;;4.00;3.70;;;;;;;;;;4900245;29;20602;-68
2023/06/03 20:00:45;;;;;;;3.55;3.25;;;;;;;;;;4900134;29;20213;-68
2023/06/03 20:03:12;;;;;;;3.80;3.50;;;;;;;;;;4899983;29;20202;-69
2023/06/03 20:05:42;;;;;;;3.45;3.22;;;;;;;;;;4899818;29;20262;-68
2023/06/03 20:08:09;;;;;;;3.38;3.17;;;;;;;;;;4899564;29;20698;-68
2023/06/03 20:10:36;;;;;;;3.53;3.30;;;;;;;;;;4899544;29;20210;-68
2023/06/03 20:13:03;;;;;;;3.38;3.15;;;17.30;99.90;;;;;;4899479;29;20229;-68
2023/06/03 20:15:30;;;;;;;3.72;3.40;;;17.30;99.90;;;;;;4899282;29;20272;-68
2023/06/03 20:17:57;;;;;;;3.10;2.90;;;17.10;99.90;;;;;;4899466;29;20557;-68
2023/06/03 20:20:23;;;;;;;3.40;3.20;;;17.10;99.90;;;;;;4900130;29;20225;-67
2023/06/03 20:22:51;;;;;;;3.25;3.05;;;17.10;99.90;;;;;;4899357;29;20206;-67
2023/06/03 20:25:18;;;;;;;2.67;2.58;;;17.00;99.90;;;;;;4899012;29;20676;-67
2023/06/03 20:27:45;;;;;;;3.88;3.58;;;17.00;99.90;;;;;;4899394;29;20206;-67
2023/06/03 20:30:12;;;;;;;3.30;3.10;;;16.90;99.90;;;;;;4899184;29;20693;-67
2023/06/03 20:32:38;;;;;;;3.42;3.15;;;16.90;99.90;;;;;;4899229;29;20249;-67
2023/06/03 20:35:06;;;;;;;3.13;2.90;;;16.90;99.90;;;;;;4898888;29;20678;-67